createdAt,value
2023-09-25T00:01:26.158Z,13.40
2023-09-25T00:03:52.690Z,13.51
2023-09-25T00:06:19.619Z,13.37
2023-09-25T00:08:46.172Z,13.28
2023-09-25T00:11:12.598Z,13.31
2023-09-25T00:13:39.074Z,13.16
2023-09-25T00:16:06.169Z,13.36
2023-09-25T00:18:32.836Z,13.33
2023-09-25T00:20:59.371Z,13.45
2023-09-25T00:23:25.732Z,13.31
2023-09-25T00:25:52.216Z,13.21
2023-09-25T00:28:18.752Z,13.34
2023-09-25T00:30:45.562Z,13.19
2023-09-25T00:33:12.219Z,13.19
2023-09-25T00:35:42.351Z,13.17
2023-09-25T00:38:08.792Z,13.19
2023-09-25T00:40:37.286Z,13.19
2023-09-25T00:43:05.317Z,13.34
2023-09-25T00:45:31.932Z,13.26
2023-09-25T00:47:59.047Z,13.27
2023-09-25T00:50:30.753Z,13.22
2023-09-25T00:52:59.690Z,13.25
2023-09-25T00:55:26.144Z,13.25
2023-09-25T00:57:53.818Z,13.23
2023-09-25T01:00:20.456Z,13.21
2023-09-25T01:02:48.200Z,13.15
2023-09-25T01:05:14.758Z,13.19
2023-09-25T01:07:41.395Z,13.21
2023-09-25T01:10:16.096Z,13.12
2023-09-25T01:12:43.537Z,13.25
2023-09-25T01:15:10.995Z,13.16
2023-09-25T01:17:37.675Z,13.21
2023-09-25T01:20:14.582Z,13.25
2023-09-25T01:22:42.102Z,13.20
2023-09-25T01:25:11.658Z,13.17
2023-09-25T01:27:43.483Z,13.25
2023-09-25T01:30:12.415Z,13.09
2023-09-25T01:32:40.440Z,13.08
2023-09-25T01:35:15.261Z,13.12
2023-09-25T01:37:47.589Z,13.00
2023-09-25T01:40:14.986Z,12.96
2023-09-25T01:42:41.792Z,12.91
2023-09-25T01:45:12.413Z,12.86
2023-09-25T01:47:41.012Z,12.80
2023-09-25T01:50:11.070Z,12.71
2023-09-25T01:52:37.485Z,12.73
2023-09-25T01:55:04.702Z,12.71
2023-09-25T01:57:34.987Z,12.95
2023-09-25T02:00:01.341Z,12.68
2023-09-25T02:02:27.935Z,12.78
2023-09-25T02:04:54.429Z,12.65
2023-09-25T02:07:22.612Z,12.55
2023-09-25T02:09:48.965Z,12.30
2023-09-25T02:12:15.419Z,12.13
2023-09-25T02:14:41.820Z,12.09
2023-09-25T02:17:08.174Z,12.10
2023-09-25T02:19:34.556Z,12.06
2023-09-25T02:22:00.890Z,12.31
2023-09-25T02:24:27.282Z,12.27
2023-09-25T02:26:53.639Z,12.32
2023-09-25T02:29:21.547Z,12.29
2023-09-25T02:31:48.067Z,12.38
2023-09-25T02:34:15.620Z,12.39
2023-09-25T02:36:42.404Z,12.42
2023-09-25T02:39:10.899Z,12.38
2023-09-25T02:41:37.573Z,12.34
2023-09-25T02:44:04.068Z,12.24
2023-09-25T02:46:30.653Z,12.34
2023-09-25T02:48:57.190Z,12.26
2023-09-25T02:51:23.747Z,12.21
2023-09-25T02:53:51.830Z,12.23
2023-09-25T02:56:18.316Z,12.29
2023-09-25T02:58:45.202Z,12.45
2023-09-25T03:01:11.708Z,12.57
2023-09-25T03:03:40.010Z,12.47
2023-09-25T03:06:06.439Z,12.16
2023-09-25T03:08:32.795Z,11.99
2023-09-25T03:10:59.142Z,11.90
2023-09-25T03:13:25.551Z,12.13
2023-09-25T03:15:52.027Z,11.79
2023-09-25T03:18:18.512Z,11.69
2023-09-25T03:20:44.980Z,11.62
2023-09-25T03:23:11.379Z,11.59
2023-09-25T03:25:38.552Z,11.61
2023-09-25T03:28:04.981Z,11.57
2023-09-25T03:30:31.349Z,11.50
2023-09-25T03:32:57.959Z,11.40
2023-09-25T03:35:24.415Z,11.58
2023-09-25T03:37:51.091Z,11.53
2023-09-25T03:40:17.468Z,11.51
2023-09-25T03:42:44.020Z,11.50
2023-09-25T03:45:10.774Z,11.57
2023-09-25T03:47:37.373Z,11.41
2023-09-25T03:50:04.419Z,11.31
2023-09-25T03:52:30.854Z,11.30
2023-09-25T03:54:57.189Z,11.27
2023-09-25T03:57:23.757Z,11.29
2023-09-25T03:59:51.427Z,11.29
2023-09-25T04:02:17.792Z,11.23
2023-09-25T04:04:44.170Z,11.25
2023-09-25T04:07:10.596Z,11.20
2023-09-25T04:09:37.093Z,11.16
2023-09-25T04:12:06.475Z,11.15
2023-09-25T04:14:36.771Z,11.06
2023-09-25T04:17:03.322Z,11.08
2023-09-25T04:19:30.008Z,11.14
2023-09-25T04:21:56.442Z,11.22
2023-09-25T04:24:22.928Z,11.17
2023-09-25T04:26:49.315Z,11.18
2023-09-25T04:29:19.022Z,11.18
2023-09-25T04:31:47.588Z,11.23
2023-09-25T04:34:14.078Z,11.25
2023-09-25T04:36:40.477Z,11.37
2023-09-25T04:39:11.336Z,11.41
2023-09-25T04:41:38.204Z,11.48
2023-09-25T04:44:05.792Z,11.55
2023-09-25T04:46:32.545Z,11.64
2023-09-25T04:49:01.274Z,11.63
2023-09-25T04:51:27.875Z,11.71
2023-09-25T04:53:54.362Z,11.66
2023-09-25T04:56:22.189Z,11.74
2023-09-25T04:58:49.116Z,11.78
2023-09-25T05:01:15.775Z,11.70
2023-09-25T05:03:42.271Z,11.62
2023-09-25T05:06:13.661Z,11.72
2023-09-25T05:08:40.341Z,11.58
2023-09-25T05:11:08.241Z,11.49
2023-09-25T05:13:35.286Z,11.41
2023-09-25T05:16:03.159Z,11.26
2023-09-25T05:18:30.759Z,11.14
2023-09-25T05:20:58.413Z,11.06
2023-09-25T05:23:25.505Z,11.04
2023-09-25T05:25:51.928Z,11.03
2023-09-25T05:28:18.308Z,11.03
2023-09-25T05:30:44.747Z,10.91
2023-09-25T05:33:11.284Z,10.88
2023-09-25T05:35:37.686Z,10.88
2023-09-25T05:38:04.337Z,10.91
2023-09-25T05:40:30.740Z,10.95
2023-09-25T05:42:57.243Z,10.98
2023-09-25T05:45:23.937Z,11.07
2023-09-25T05:47:50.469Z,11.15
2023-09-25T05:50:17.400Z,11.23
2023-09-25T05:52:43.949Z,11.28
2023-09-25T05:55:11.566Z,11.33
2023-09-25T05:57:38.733Z,11.34
2023-09-25T06:00:13.429Z,11.44
2023-09-25T06:02:41.458Z,11.55
2023-09-25T06:05:08.273Z,11.65
2023-09-25T06:07:36.272Z,11.77
2023-09-25T06:10:05.484Z,11.80
2023-09-25T06:12:32.678Z,11.75
2023-09-25T06:14:59.117Z,11.91
2023-09-25T06:17:28.019Z,11.92
2023-09-25T06:19:55.282Z,12.00
2023-09-25T06:22:22.660Z,11.95
2023-09-25T06:24:50.134Z,11.99
2023-09-25T06:27:16.645Z,12.20
2023-09-25T06:29:46.122Z,12.26
2023-09-25T06:32:12.703Z,12.29
2023-09-25T06:34:40.462Z,12.35
2023-09-25T06:37:07.065Z,12.32
2023-09-25T06:39:34.856Z,12.38
2023-09-25T06:42:01.428Z,12.51
2023-09-25T06:44:27.851Z,12.49
2023-09-25T06:46:54.257Z,12.48
2023-09-25T06:49:20.857Z,12.57
2023-09-25T06:51:49.109Z,12.68
2023-09-25T06:54:15.626Z,12.72
2023-09-25T06:56:42.007Z,12.86
2023-09-25T06:59:08.449Z,13.02
2023-09-25T07:01:35.036Z,13.16
2023-09-25T07:04:01.922Z,13.18
2023-09-25T07:06:28.477Z,13.25
2023-09-25T07:08:54.864Z,13.35
2023-09-25T07:11:21.226Z,13.41
2023-09-25T07:13:48.770Z,13.46
2023-09-25T07:16:15.349Z,13.57
2023-09-25T07:18:41.829Z,13.83
2023-09-25T07:21:08.340Z,13.85
2023-09-25T07:23:34.776Z,13.97
2023-09-25T07:26:06.226Z,14.04
2023-09-25T07:28:32.811Z,14.15
2023-09-25T07:31:01.808Z,14.33
2023-09-25T07:33:30.184Z,14.39
2023-09-25T07:35:57.504Z,14.48
2023-09-25T07:38:24.195Z,14.39
2023-09-25T07:41:00.041Z,14.58
2023-09-25T07:43:42.181Z,14.80
2023-09-25T07:46:13.602Z,14.92
2023-09-25T07:48:40.120Z,14.89
2023-09-25T07:51:08.216Z,14.89
2023-09-25T07:53:35.514Z,15.07
2023-09-25T07:56:02.421Z,15.26
2023-09-25T07:58:29.013Z,15.42
2023-09-25T08:01:01.638Z,15.66
2023-09-25T08:03:28.339Z,15.61
2023-09-25T08:05:55.300Z,15.79
2023-09-25T08:08:21.727Z,15.94
2023-09-25T08:10:49.032Z,16.10
2023-09-25T08:13:17.389Z,16.20
2023-09-25T08:15:43.902Z,16.38
2023-09-25T08:18:10.416Z,16.47
2023-09-25T08:20:37.322Z,16.53
2023-09-25T08:23:04.948Z,16.60
2023-09-25T08:25:31.748Z,16.63
2023-09-25T08:27:58.616Z,16.79
2023-09-25T08:30:25.113Z,16.82
2023-09-25T08:32:51.900Z,16.85
2023-09-25T08:35:18.403Z,16.93
2023-09-25T08:37:44.972Z,16.82
2023-09-25T08:40:11.941Z,17.13
2023-09-25T08:42:39.049Z,17.36
2023-09-25T08:45:06.680Z,17.27
2023-09-25T08:47:35.410Z,17.32
2023-09-25T08:50:02.872Z,17.43
2023-09-25T08:52:29.683Z,17.72
2023-09-25T08:54:56.293Z,17.76
2023-09-25T08:57:23.848Z,17.80
2023-09-25T08:59:51.634Z,17.85
2023-09-25T09:02:18.662Z,17.95
2023-09-25T09:04:46.282Z,18.10
2023-09-25T09:07:15.396Z,18.26
2023-09-25T09:09:44.256Z,18.38
2023-09-25T09:12:11.550Z,18.45
2023-09-25T09:14:39.904Z,18.49
2023-09-25T09:17:07.284Z,18.69
2023-09-25T09:19:39.904Z,18.78
2023-09-25T09:22:08.052Z,18.92
2023-09-25T09:24:37.952Z,18.84
2023-09-25T09:27:10.324Z,18.93
2023-09-25T09:29:44.173Z,18.93
2023-09-25T09:32:12.226Z,19.05
2023-09-25T09:34:42.095Z,19.31
2023-09-25T09:37:11.597Z,19.30
2023-09-25T09:39:38.517Z,19.41
2023-09-25T09:42:06.724Z,19.44
2023-09-25T09:44:33.822Z,19.62
2023-09-25T09:47:05.605Z,19.71
2023-09-25T09:49:35.902Z,19.66
2023-09-25T09:52:03.976Z,19.85
2023-09-25T09:54:34.746Z,19.72
2023-09-25T09:57:02.900Z,19.95
2023-09-25T09:59:29.454Z,19.89
2023-09-25T10:01:58.786Z,19.91
2023-09-25T10:04:27.688Z,19.88
2023-09-25T10:06:59.847Z,20.20
2023-09-25T10:09:27.558Z,20.23
2023-09-25T10:11:55.832Z,20.38
2023-09-25T10:14:24.968Z,20.36
2023-09-25T10:17:12.264Z,20.55
2023-09-25T10:19:39.026Z,20.54
2023-09-25T10:22:13.675Z,20.46
2023-09-25T10:24:42.909Z,20.57
2023-09-25T10:27:14.509Z,20.54
2023-09-25T10:30:00.832Z,20.86
2023-09-25T10:32:31.693Z,20.79
2023-09-25T10:34:58.109Z,20.87
2023-09-25T10:37:24.506Z,20.87
2023-09-25T10:39:57.725Z,21.09
2023-09-25T10:42:24.150Z,21.16
2023-09-25T10:44:50.501Z,21.36
2023-09-25T10:47:16.893Z,21.79
2023-09-25T10:49:43.866Z,21.79
2023-09-25T10:52:10.221Z,21.95
2023-09-25T10:54:36.687Z,22.20
2023-09-25T10:57:03.813Z,21.96
2023-09-25T10:59:30.630Z,22.42
2023-09-25T11:01:57.342Z,22.69
2023-09-25T11:04:23.830Z,22.72
2023-09-25T11:06:50.514Z,22.64
2023-09-25T11:09:18.542Z,22.68
2023-09-25T11:11:47.929Z,22.97
2023-09-25T11:14:14.569Z,23.17
2023-09-25T11:16:41.479Z,22.91
2023-09-25T11:19:15.456Z,22.94
2023-09-25T11:21:46.831Z,23.27
2023-09-25T11:24:13.369Z,23.03
2023-09-25T11:26:41.392Z,23.05
2023-09-25T11:29:12.178Z,23.28
2023-09-25T11:31:59.376Z,23.38
2023-09-25T11:34:26.414Z,23.78
2023-09-25T11:36:52.993Z,24.05
2023-09-25T11:39:19.517Z,24.05
2023-09-25T11:41:46.669Z,24.27
2023-09-25T11:44:13.827Z,24.15
2023-09-25T11:46:42.953Z,24.38
2023-09-25T11:49:09.613Z,24.37
2023-09-25T11:51:36.605Z,24.15
2023-09-25T11:54:06.593Z,24.58
2023-09-25T11:56:33.809Z,24.80
2023-09-25T11:59:01.446Z,24.89
2023-09-25T12:01:28.134Z,24.74
2023-09-25T12:03:55.020Z,24.62
2023-09-25T12:06:25.334Z,25.06
2023-09-25T12:08:52.378Z,25.13
2023-09-25T12:11:18.845Z,25.12
2023-09-25T12:13:46.077Z,25.36
2023-09-25T12:16:12.834Z,25.40
2023-09-25T12:18:39.401Z,25.22
2023-09-25T12:21:08.322Z,25.38
2023-09-25T12:23:35.659Z,25.88
2023-09-25T12:26:02.249Z,25.98
2023-09-25T12:28:30.313Z,26.15
2023-09-25T12:30:57.828Z,26.15
2023-09-25T12:33:24.479Z,25.82
2023-09-25T12:35:50.956Z,25.85
2023-09-25T12:38:17.347Z,25.21
2023-09-25T12:40:43.694Z,25.68
2023-09-25T12:43:10.166Z,25.55
2023-09-25T12:45:36.689Z,25.30
2023-09-25T12:48:03.332Z,25.36
2023-09-25T12:50:31.530Z,24.93
2023-09-25T12:52:59.416Z,24.98
2023-09-25T12:55:26.217Z,25.19
2023-09-25T12:57:53.697Z,25.29
2023-09-25T13:00:20.043Z,25.39
2023-09-25T13:02:48.595Z,25.24
2023-09-25T13:05:17.055Z,25.36
2023-09-25T13:07:43.584Z,25.11
2023-09-25T13:10:11.179Z,24.96
2023-09-25T13:12:37.692Z,25.05
2023-09-25T13:15:05.224Z,25.27
2023-09-25T13:17:31.838Z,25.24
2023-09-25T13:20:00.267Z,25.11
2023-09-25T13:22:35.512Z,24.78
2023-09-25T13:25:03.757Z,24.85
2023-09-25T13:27:30.326Z,24.62
2023-09-25T13:29:56.768Z,24.72
2023-09-25T13:32:23.221Z,24.32
2023-09-25T13:34:49.612Z,24.66
2023-09-25T13:37:17.118Z,24.53
2023-09-25T13:39:43.839Z,24.72
2023-09-25T13:42:12.506Z,24.43
2023-09-25T13:44:38.852Z,24.47
2023-09-25T13:47:05.799Z,24.39
2023-09-25T13:49:32.235Z,24.41
2023-09-25T13:51:58.727Z,24.36
2023-09-25T13:54:25.245Z,24.41
2023-09-25T13:56:51.737Z,24.44
2023-09-25T13:59:18.794Z,24.37
2023-09-25T14:01:48.153Z,24.93
2023-09-25T14:04:15.189Z,25.25
2023-09-25T14:06:42.971Z,25.28
2023-09-25T14:09:10.114Z,25.86
2023-09-25T14:11:36.982Z,25.59
2023-09-25T14:14:03.775Z,25.27
2023-09-25T14:16:33.616Z,24.99
2023-09-25T14:19:00.059Z,25.01
2023-09-25T14:21:26.661Z,24.80
2023-09-25T14:23:53.279Z,24.63
2023-09-25T14:26:19.708Z,24.43
2023-09-25T14:28:46.217Z,24.58
2023-09-25T14:31:12.912Z,24.40
2023-09-25T14:33:40.559Z,24.66
2023-09-25T14:36:08.037Z,25.16
2023-09-25T14:38:34.964Z,25.06
2023-09-25T14:41:02.518Z,24.96
2023-09-25T14:43:29.450Z,24.75
2023-09-25T14:45:55.942Z,24.51
2023-09-25T14:48:22.378Z,24.16
2023-09-25T14:50:48.838Z,23.97
2023-09-25T14:53:15.333Z,23.81
2023-09-25T14:55:56.192Z,23.72
2023-09-25T14:58:24.186Z,23.86
2023-09-25T15:00:59.944Z,23.64
2023-09-25T15:03:27.707Z,23.50
2023-09-25T15:05:55.027Z,23.39
2023-09-25T15:08:24.477Z,23.28
2023-09-25T15:10:51.757Z,23.16
2023-09-25T15:13:18.116Z,23.21
2023-09-25T15:15:44.536Z,23.24
2023-09-25T15:18:10.949Z,23.25
2023-09-25T15:20:37.427Z,23.16
2023-09-25T15:23:03.968Z,23.06
2023-09-25T15:25:31.468Z,23.12
2023-09-25T15:27:58.034Z,22.80
2023-09-25T15:30:24.557Z,22.80
2023-09-25T15:32:51.008Z,22.82
2023-09-25T15:35:17.387Z,22.84
2023-09-25T15:37:43.776Z,22.88
2023-09-25T15:40:10.447Z,22.91
2023-09-25T15:42:37.007Z,22.81
2023-09-25T15:45:03.991Z,22.76
2023-09-25T15:47:30.540Z,22.83
2023-09-25T15:49:56.961Z,22.91
2023-09-25T15:52:23.321Z,22.78
2023-09-25T15:54:49.789Z,22.72
2023-09-25T15:57:16.398Z,22.74
2023-09-25T15:59:42.951Z,22.73
2023-09-25T16:02:09.530Z,22.74
2023-09-25T16:04:36.341Z,22.78
2023-09-25T16:07:04.081Z,22.70
2023-09-25T16:09:30.752Z,22.81
2023-09-25T16:11:59.312Z,22.70
2023-09-25T16:14:25.931Z,22.61
2023-09-25T16:16:52.318Z,22.46
2023-09-25T16:19:19.420Z,22.47
2023-09-25T16:21:45.853Z,22.54
2023-09-25T16:24:12.367Z,22.57
2023-09-25T16:26:38.775Z,22.45
2023-09-25T16:29:05.121Z,22.42
2023-09-25T16:31:32.098Z,22.23
2023-09-25T16:33:58.637Z,22.15
2023-09-25T16:36:25.054Z,22.15
2023-09-25T16:38:51.795Z,22.07
2023-09-25T16:41:18.191Z,22.07
2023-09-25T16:43:44.570Z,22.00
2023-09-25T16:46:11.121Z,21.85
2023-09-25T16:48:38.023Z,21.97
2023-09-25T16:51:06.610Z,21.85
2023-09-25T16:53:32.999Z,21.97
2023-09-25T16:56:01.257Z,21.82
2023-09-25T16:58:27.994Z,21.70
2023-09-25T17:00:54.614Z,21.72
2023-09-25T17:03:21.163Z,21.72
2023-09-25T17:05:47.628Z,21.59
2023-09-25T17:08:14.239Z,21.50
2023-09-25T17:10:42.237Z,21.28
2023-09-25T17:13:10.246Z,21.25
2023-09-25T17:15:40.119Z,21.07
2023-09-25T17:18:07.715Z,20.87
2023-09-25T17:20:34.831Z,20.81
2023-09-25T17:23:01.423Z,20.89
2023-09-25T17:25:27.990Z,20.71
2023-09-25T17:27:54.536Z,20.55
2023-09-25T17:30:22.440Z,20.44
2023-09-25T17:32:49.712Z,20.35
2023-09-25T17:35:16.950Z,20.36
2023-09-25T17:37:44.539Z,20.21
2023-09-25T17:40:11.529Z,20.09
2023-09-25T17:42:37.998Z,20.04
2023-09-25T17:45:06.175Z,19.92
2023-09-25T17:47:35.096Z,19.86
2023-09-25T17:50:01.623Z,19.71
2023-09-25T17:52:28.116Z,19.70
2023-09-25T17:54:54.570Z,19.74
2023-09-25T17:57:21.508Z,19.62
2023-09-25T17:59:47.950Z,19.39
2023-09-25T18:02:15.503Z,19.34
2023-09-25T18:04:44.329Z,19.20
2023-09-25T18:07:10.826Z,19.14
2023-09-25T18:09:37.233Z,19.00
2023-09-25T18:12:03.945Z,18.90
2023-09-25T18:14:30.317Z,18.84
2023-09-25T18:16:56.840Z,18.74
2023-09-25T18:19:23.187Z,18.60
2023-09-25T18:21:49.599Z,18.48
2023-09-25T18:24:16.566Z,18.48
2023-09-25T18:26:43.211Z,18.31
2023-09-25T18:29:09.582Z,18.14
2023-09-25T18:31:36.010Z,18.07
2023-09-25T18:34:02.553Z,18.14
2023-09-25T18:36:28.993Z,18.10
2023-09-25T18:38:55.461Z,18.08
2023-09-25T18:41:21.839Z,18.05
2023-09-25T18:43:48.429Z,17.89
2023-09-25T18:46:15.105Z,17.80
2023-09-25T18:48:41.644Z,17.75
2023-09-25T18:51:08.060Z,17.77
2023-09-25T18:53:34.518Z,17.72
2023-09-25T18:56:01.335Z,17.65
2023-09-25T18:58:27.698Z,17.73
2023-09-25T19:00:55.366Z,17.68
2023-09-25T19:03:22.477Z,17.68
2023-09-25T19:05:51.056Z,17.56
2023-09-25T19:08:20.907Z,17.48
2023-09-25T19:10:47.471Z,17.53
2023-09-25T19:13:30.073Z,17.40
2023-09-25T19:16:01.301Z,17.26
2023-09-25T19:18:28.551Z,17.20
2023-09-25T19:20:55.075Z,17.16
2023-09-25T19:23:21.531Z,17.01
2023-09-25T19:25:48.001Z,17.04
2023-09-25T19:28:14.607Z,17.04
2023-09-25T19:30:41.044Z,17.03
2023-09-25T19:33:07.613Z,16.99
2023-09-25T19:35:34.163Z,16.90
2023-09-25T19:38:00.551Z,16.96
2023-09-25T19:40:26.969Z,16.87
2023-09-25T19:42:53.432Z,16.66
2023-09-25T19:45:20.010Z,16.40
2023-09-25T19:47:46.397Z,16.38
2023-09-25T19:50:12.849Z,16.53
2023-09-25T19:52:39.631Z,16.54
2023-09-25T19:55:06.354Z,16.23
2023-09-25T19:57:32.720Z,16.15
2023-09-25T19:59:59.167Z,15.86
2023-09-25T20:02:25.915Z,15.78
2023-09-25T20:04:52.363Z,15.82
2023-09-25T20:07:18.849Z,15.97
2023-09-25T20:09:45.351Z,15.98
2023-09-25T20:12:11.765Z,15.92
2023-09-25T20:14:38.184Z,15.87
2023-09-25T20:17:04.709Z,15.91
2023-09-25T20:19:31.256Z,15.88
2023-09-25T20:21:57.734Z,15.81
2023-09-25T20:24:24.135Z,15.73
2023-09-25T20:26:50.490Z,15.79
2023-09-25T20:29:16.850Z,15.83
2023-09-25T20:31:43.463Z,15.72
2023-09-25T20:34:10.028Z,15.72
2023-09-25T20:36:36.460Z,15.70
2023-09-25T20:39:03.004Z,15.58
2023-09-25T20:41:29.458Z,15.65
2023-09-25T20:43:55.856Z,15.61
2023-09-25T20:46:22.323Z,15.65
2023-09-25T20:48:50.680Z,15.65
2023-09-25T20:51:18.499Z,15.58
2023-09-25T20:53:45.074Z,15.49
2023-09-25T20:56:11.451Z,15.48
2023-09-25T20:58:37.895Z,15.48
2023-09-25T21:01:04.392Z,15.44
2023-09-25T21:03:30.927Z,15.50
2023-09-25T21:05:57.595Z,15.45
2023-09-25T21:08:24.978Z,15.32
2023-09-25T21:10:52.621Z,15.26
2023-09-25T21:13:19.352Z,15.21
2023-09-25T21:15:45.826Z,14.93
2023-09-25T21:18:12.649Z,14.87
2023-09-25T21:20:39.481Z,14.93
2023-09-25T21:23:06.187Z,14.92
2023-09-25T21:25:32.693Z,14.87
2023-09-25T21:27:59.119Z,14.65
2023-09-25T21:30:25.619Z,14.87
2023-09-25T21:32:52.086Z,14.86
2023-09-25T21:35:18.667Z,14.66
2023-09-25T21:37:45.028Z,14.58
2023-09-25T21:40:12.355Z,14.40
2023-09-25T21:42:38.942Z,14.26
2023-09-25T21:45:05.952Z,14.17
2023-09-25T21:47:32.323Z,14.25
2023-09-25T21:49:58.719Z,14.11
2023-09-25T21:52:26.139Z,14.09
2023-09-25T21:54:52.570Z,14.07
2023-09-25T21:57:18.947Z,14.04
2023-09-25T21:59:48.829Z,14.17
2023-09-25T22:02:15.260Z,14.30
2023-09-25T22:04:41.642Z,14.22
2023-09-25T22:07:08.206Z,14.14
2023-09-25T22:09:34.656Z,14.15
2023-09-25T22:12:01.028Z,14.07
2023-09-25T22:14:29.514Z,14.12
2023-09-25T22:16:56.128Z,14.11
2023-09-25T22:19:23.388Z,14.10
2023-09-25T22:21:50.176Z,14.12
2023-09-25T22:24:16.728Z,14.21
2023-09-25T22:26:43.738Z,14.08
2023-09-25T22:29:10.376Z,14.04
2023-09-25T22:31:37.053Z,14.13
2023-09-25T22:34:03.434Z,14.03
2023-09-25T22:36:29.847Z,14.00
2023-09-25T22:38:56.526Z,13.98
2023-09-25T22:41:23.575Z,13.93
2023-09-25T22:43:50.184Z,13.83
2023-09-25T22:46:16.898Z,13.74
2023-09-25T22:48:43.470Z,13.87
2023-09-25T22:51:10.019Z,13.74
2023-09-25T22:53:36.526Z,13.69
2023-09-25T22:56:03.199Z,13.57
2023-09-25T22:58:30.660Z,13.56
2023-09-25T23:00:57.125Z,13.78
2023-09-25T23:03:24.394Z,13.82
2023-09-25T23:05:50.862Z,13.76
2023-09-25T23:08:17.446Z,13.67
2023-09-25T23:10:43.819Z,13.62
2023-09-25T23:13:10.255Z,13.67
2023-09-25T23:15:36.888Z,13.63
2023-09-25T23:18:03.580Z,13.51
2023-09-25T23:20:30.608Z,13.44
2023-09-25T23:22:57.391Z,13.39
2023-09-25T23:25:25.702Z,13.37
2023-09-25T23:27:53.122Z,13.43
2023-09-25T23:30:20.457Z,13.42
2023-09-25T23:32:49.306Z,13.45
2023-09-25T23:35:17.022Z,13.36
2023-09-25T23:37:45.045Z,13.23
2023-09-25T23:40:16.188Z,13.27
2023-09-25T23:42:43.210Z,13.24
2023-09-25T23:45:12.456Z,13.26
2023-09-25T23:47:38.929Z,13.29
2023-09-25T23:50:08.935Z,13.17
2023-09-25T23:52:36.600Z,13.10
2023-09-25T23:55:05.213Z,13.10
2023-09-25T23:57:32.322Z,13.10
